Time;durP1;ratioP1;P1;durP2;ratioP2;P2;SDS_P1;SDS_P2;PMS_P1;PMS_P2;Temp;Humidity;BMP_temperature;BMP_pressure;BME280_temperature;BME280_humidity;BME280_pressure;Samples;Min_cycle;Max_cycle;Signal;HPM_P1;HPM_P2
2022/11/04 07:50:04;;;;;;;;;0.25;0.25;;;;;11.12;86.72;100054.28;6193224;22;49377;-68
2022/11/04 07:52:29;;;;;;;;;3.00;2.00;;;;;11.98;86.66;100173.16;6212842;22;49725;-75
2022/11/04 07:54:54;;;;;;;;;0.50;0.00;;;;;11.26;86.72;100042.97;6204368;22;50070;-70
2022/11/04 07:57:20;;;;;;;;;0.50;0.00;;;;;11.90;86.67;100146.81;6230717;22;58808;-70
2022/11/04 07:59:45;;;;;;;;;1.00;1.00;;;;;12.19;86.67;100196.94;6230018;22;49954;-71
2022/11/04 08:02:10;;;;;;;;;1.75;1.00;;;;;12.46;85.77;100219.88;6235872;22;49684;-69
2022/11/04 08:04:36;;;;;;;;;0.50;0.50;;;;;12.56;85.28;100240.13;6234328;22;49808;-69
2022/11/04 08:07:02;;;;;;;;;2.75;1.75;;;;;12.57;85.12;100248.91;6228031;22;49606;-71
2022/11/04 08:09:27;;;;;;;;;0.00;0.00;;;;;12.61;84.95;100245.38;6230411;22;49705;-73
2022/11/04 08:11:53;;;;;;;;;0.00;0.00;;;;;12.51;84.35;100238.31;6236346;22;49549;-65
2022/11/04 08:14:18;;;;;;;;;1.00;1.00;;;;;12.51;84.48;100235.69;6229888;22;49619;-65
2022/11/04 08:16:43;;;;;;;;;1.00;1.00;;;;;12.58;83.67;100262.06;6232573;22;49701;-67
2022/11/04 08:19:09;;;;;;;;;1.00;0.00;;;;;12.47;84.10;100220.78;6230606;22;50219;-68
2022/11/04 08:21:34;;;;;;;;;1.00;1.00;;;;;12.76;83.68;100265.66;6232239;22;50057;-69
2022/11/04 08:24:02;;;;;;;;;1.00;1.00;;;;;12.81;83.89;100269.19;6227288;22;50201;-70
2022/11/04 08:26:28;;;;;;;;;0.50;0.00;;;;;12.74;82.97;100260.38;6234929;22;50186;-70
2022/11/04 08:28:53;;;;;;;;;1.00;0.25;;;;;12.80;83.79;100260.41;6235471;22;49737;-70
2022/11/04 08:31:23;;;;;;;;;0.75;0.00;;;;;12.95;83.15;100275.38;6207922;22;49751;-69
2022/11/04 08:33:48;;;;;;;;;1.00;1.00;;;;;12.87;82.88;100251.66;6236141;22;49891;-70
2022/11/04 08:36:17;;;;;;;;;1.50;1.50;;;;;12.84;82.11;100242.88;6235266;22;51350;-69
2022/11/04 08:38:43;;;;;;;;;1.25;1.00;;;;;12.99;81.37;100271.00;6236021;22;49626;-70
2022/11/04 08:41:11;;;;;;;;;1.50;1.00;;;;;13.03;80.97;100268.41;6236072;22;50052;-70
2022/11/04 08:43:36;;;;;;;;;1.00;0.00;;;;;12.99;80.59;100265.72;6236811;22;49750;-70
2022/11/04 08:46:05;;;;;;;;;1.00;1.00;;;;;12.84;80.34;100233.22;6235898;22;50739;-67
2022/11/04 08:48:32;;;;;;;;;1.00;1.00;;;;;13.26;79.89;100301.88;6235895;22;49713;-69
2022/11/04 08:50:58;;;;;;;;;4.50;2.00;;;;;13.18;80.45;100284.22;6235532;22;49912;-69
2022/11/04 08:53:23;;;;;;;;;1.50;1.00;;;;;13.41;79.35;100322.97;6235363;22;52149;-74
2022/11/04 08:55:49;;;;;;;;;1.75;1.75;;;;;13.33;79.15;100308.91;6235460;22;49961;-90
2022/11/04 08:58:14;;;;;;;;;2.00;0.00;;;;;13.44;78.67;100339.69;6236298;22;49753;-70
2022/11/04 09:00:40;;;;;;;;;0.25;0.25;;;;;13.34;78.94;100313.31;6236376;22;49729;-71
2022/11/04 09:03:05;;;;;;;;;1.00;1.00;;;;;13.57;78.77;100348.50;6235820;22;49916;-73
2022/11/04 09:05:32;;;;;;;;;1.00;1.00;;;;;13.59;77.71;100349.38;6235770;22;50627;-72
2022/11/04 09:07:57;;;;;;;;;2.00;2.00;;;;;13.58;77.95;100347.63;6208290;22;49785;-71
2022/11/04 09:10:23;;;;;;;;;1.00;0.25;;;;;13.43;77.59;100331.78;6236497;22;49973;-71
2022/11/04 09:12:48;;;;;;;;;2.00;2.00;;;;;13.38;77.48;100321.22;6208754;22;49934;-72
2022/11/04 09:15:14;;;;;;;;;2.25;1.00;;;;;13.67;77.71;100367.88;6236271;22;49957;-71
2022/11/04 09:17:39;;;;;;;;;1.00;1.00;;;;;13.29;77.60;100302.75;6236378;22;49694;-71
2022/11/04 09:20:05;;;;;;;;;1.00;1.00;;;;;13.76;76.62;100375.78;6235553;22;49885;-72
2022/11/04 09:22:31;;;;;;;;;0.75;0.75;;;;;13.45;76.32;100330.03;6236144;22;49747;-71
2022/11/04 09:24:56;;;;;;;;;0.00;0.00;;;;;13.71;76.90;100381.09;6235816;22;50590;-71
2022/11/04 09:27:22;;;;;;;;;3.50;1.25;;;;;13.64;77.19;100374.03;6236749;22;49576;-77
2022/11/04 09:29:47;;;;;;;;;1.00;1.00;;;;;13.77;77.20;100379.31;6236398;22;49872;-76
2022/11/04 09:32:13;;;;;;;;;1.00;1.00;;;;;13.78;76.54;100384.59;6236591;22;49625;-76
2022/11/04 09:34:38;;;;;;;;;0.25;0.00;;;;;13.36;76.55;100322.97;6235750;22;49813;-74
2022/11/04 09:37:03;;;;;;;;;2.00;0.00;;;;;12.10;76.96;100122.34;6234202;22;50515;-74
2022/11/04 09:39:29;;;;;;;;;3.00;1.00;;;;;12.71;76.90;100205.03;6235897;22;49704;-76
2022/11/04 09:42:00;;;;;;;;;2.25;1.00;;;;;13.75;76.00;100400.41;6235750;22;49684;-74
2022/11/04 09:44:37;;;;;;;;;0.75;0.75;;;;;13.62;76.31;100401.28;6235988;22;49917;-76
2022/11/04 09:47:03;;;;;;;;;1.50;0.00;;;;;12.86;76.57;100281.50;6235601;22;49605;-74
2022/11/04 09:49:34;;;;;;;;;1.00;1.00;;;;;13.87;76.07;100418.03;6235559;22;49614;-76
2022/11/04 09:52:02;;;;;;;;;3.00;0.00;;;;;12.92;75.04;100274.47;6236647;22;49699;-74
2022/11/04 09:54:47;;;;;;;;;1.00;1.00;;;;;12.81;75.34;100269.19;6233863;22;52042;-79
2022/11/04 09:57:16;;;;;;;;;2.00;0.75;;;;;12.73;74.46;100297.22;6233069;22;49835;-77
2022/11/04 09:59:42;;;;;;;;;1.00;1.00;;;;;13.18;74.39;100370.31;6233902;22;49833;-83
2022/11/04 10:02:13;;;;;;;;;1.00;1.00;;;;;13.61;75.41;100431.16;6232502;22;49760;-74
2022/11/04 10:05:03;;;;;;;;;1.75;1.75;;;;;13.56;75.12;100440.81;6232304;22;50813;-78
2022/11/04 10:07:50;;;;;;;;;2.00;2.00;;;;;13.58;74.72;100450.47;6233287;22;49886;-74
2022/11/04 10:10:34;;;;;;;;;1.25;1.00;;;;;13.54;74.15;100461.03;6235460;22;49491;-75
2022/11/04 10:13:16;;;;;;;;;2.00;1.00;;;;;13.56;74.17;100468.06;6235699;22;49700;-71
2022/11/04 10:15:51;;;;;;;;;2.00;1.00;;;;;13.61;74.33;100458.44;6235710;22;50345;-72
2022/11/04 10:18:46;;;;;;;;;4.25;2.00;;;;;13.51;74.23;100463.63;6234822;22;49817;-73
2022/11/04 10:21:31;;;;;;;;;1.50;1.50;;;;;12.04;73.81;100265.25;6235160;22;49840;-74
2022/11/04 10:24:07;;;;;;;;;1.00;1.00;;;;;12.79;74.75;100368.38;6208161;22;49914;-75
2022/11/04 10:26:43;;;;;;;;;1.00;1.00;;;;;13.15;74.03;100458.19;6235521;22;50661;-72
2022/11/04 10:29:20;;;;;;;;;0.25;0.25;;;;;13.14;73.85;100456.41;6235423;22;49916;-72
2022/11/04 10:31:46;;;;;;;;;1.00;1.00;;;;;12.81;73.90;100401.75;6207546;22;49818;-72
2022/11/04 10:34:27;;;;;;;;;1.00;1.00;;;;;12.82;73.16;100390.34;6235503;22;50052;-70
2022/11/04 10:36:56;;;;;;;;;3.00;1.50;;;;;13.31;72.85;100479.38;6235702;22;50770;-70
2022/11/04 10:39:36;;;;;;;;;2.00;0.00;;;;;13.51;71.82;100525.19;6235347;22;49662;-73
2022/11/04 10:42:03;;;;;;;;;0.75;0.75;;;;;12.21;72.13;100312.72;6236096;22;49644;-76
2022/11/04 10:44:33;;;;;;;;;1.25;1.25;;;;;13.36;72.29;100483.78;6237143;22;49839;-72
2022/11/04 10:47:17;;;;;;;;;0.25;0.00;;;;;13.67;71.91;100526.13;6229147;22;49665;-76
2022/11/04 10:49:53;;;;;;;;;1.75;0.00;;;;;13.64;72.16;100513.81;6235130;22;49557;-73
2022/11/04 10:52:19;;;;;;;;;1.00;1.00;;;;;13.70;71.43;100520.84;6236538;22;49791;-73
2022/11/04 10:54:48;;;;;;;;;0.50;0.00;;;;;13.87;71.43;100545.56;6236535;22;49853;-73
2022/11/04 10:57:20;;;;;;;;;0.25;0.00;;;;;13.70;70.54;100495.38;6208675;22;52500;-72
2022/11/04 10:59:51;;;;;;;;;2.75;1.25;;;;;14.15;70.54;100558.84;6236606;22;49670;-73
2022/11/04 11:02:17;;;;;;;;;0.50;0.25;;;;;14.24;70.70;100564.16;6236375;22;49906;-72
2022/11/04 11:04:46;;;;;;;;;1.00;1.00;;;;;14.30;69.99;100564.19;6236776;22;49515;-80
2022/11/04 11:07:21;;;;;;;;;1.00;1.00;;;;;14.31;70.12;100569.47;6236006;22;49763;-72
2022/11/04 11:09:47;;;;;;;;;1.00;1.00;;;;;14.41;70.12;100566.84;6236193;22;49666;-74
2022/11/04 11:12:12;;;;;;;;;1.00;1.00;;;;;14.27;69.48;100567.69;6236394;22;50007;-75
2022/11/04 11:14:39;;;;;;;;;0.00;0.00;;;;;13.69;70.30;100498.00;6209064;22;50164;-72
2022/11/04 11:17:14;;;;;;;;;2.75;1.25;;;;;14.09;70.57;100579.94;6239276;22;50642;-73
2022/11/04 11:20:06;;;;;;;;;1.00;1.00;;;;;14.10;70.44;100584.38;6208661;22;49634;-74
2022/11/04 11:22:43;;;;;;;;;1.50;1.50;;;;;13.79;82.36;100594.78;6237656;22;49728;-74
2022/11/04 11:25:12;;;;;;;;;2.75;1.50;;;;;13.57;81.78;100598.19;6236801;22;49738;-75
2022/11/04 11:27:38;;;;;;;;;0.50;0.50;;;;;12.01;83.56;100350.28;6237739;22;50110;-73
2022/11/04 11:30:03;;;;;;;;;1.50;1.00;;;;;12.87;82.17;100495.75;6233972;22;49587;-74
2022/11/04 11:32:34;;;;;;;;;0.50;0.50;;;;;12.08;79.84;100377.56;6236087;22;49789;-76
2022/11/04 11:35:02;;;;;;;;;1.00;1.00;;;;;11.85;81.73;100364.16;6236870;22;49900;-77
2022/11/04 11:37:30;;;;;;;;;2.00;2.00;;;;;12.90;80.48;100507.19;6233385;22;49819;-81
2022/11/04 11:39:56;;;;;;;;;0.50;0.50;;;;;12.23;79.48;100409.25;6236054;22;49733;-76
2022/11/04 11:42:23;;;;;;;;;4.25;1.50;;;;;13.10;79.57;100536.31;6234856;22;49796;-74
2022/11/04 11:44:53;;;;;;;;;5.00;2.00;;;;;13.65;79.36;100625.47;6232808;22;49912;-76
2022/11/04 11:47:26;;;;;;;;;2.00;1.00;;;;;13.51;78.46;100620.13;6232270;22;50747;-73
2022/11/04 11:50:16;;;;;;;;;2.75;1.75;;;;;13.58;78.74;100629.84;6209060;22;49796;-73
2022/11/04 11:52:47;;;;;;;;;0.75;0.75;;;;;13.28;77.46;100566.34;6232137;22;49890;-74
2022/11/04 11:55:19;;;;;;;;;1.00;1.00;;;;;13.74;77.42;100644.00;6234832;22;49792;-73
2022/11/04 11:57:57;;;;;;;;;1.50;1.50;;;;;13.01;76.90;100494.09;6236078;22;49554;-76
2022/11/04 12:00:31;;;;;;;;;1.25;1.00;;;;;13.93;76.86;100626.53;6246855;22;49680;-71
2022/11/04 12:03:24;;;;;;;;;3.00;2.00;;;;;14.19;74.12;100656.56;6246922;22;49495;-75
2022/11/04 12:06:16;;;;;;;;;1.00;1.00;;;;;13.64;71.87;100610.53;6246372;22;49819;-75
2022/11/04 12:09:06;;;;;;;;;3.00;2.00;;;;;13.93;73.01;100610.69;6248340;22;49399;-73
2022/11/04 12:11:54;;;;;;;;;1.00;1.00;;;;;14.46;72.72;100674.28;6248361;22;49181;-71
2022/11/04 12:14:31;;;;;;;;;2.00;2.00;;;;;14.35;71.13;100680.38;6243646;22;49700;-71
2022/11/04 12:17:21;;;;;;;;;3.50;3.00;;;;;13.90;70.17;100639.72;6248366;22;49350;-72
2022/11/04 12:19:52;;;;;;;;;1.75;1.00;;;;;13.70;71.27;100616.75;6214367;22;49705;-78
2022/11/04 12:22:38;;;;;;;;;3.00;3.00;;;;;14.13;71.08;100711.09;6239400;22;50388;-77
2022/11/04 12:25:17;;;;;;;;;1.25;1.25;;;;;14.06;70.93;100712.81;6242735;22;49523;-86
2022/11/04 12:28:08;;;;;;;;;2.00;2.00;;;;;12.44;71.60;100432.22;6237559;22;49910;-75
2022/11/04 12:30:57;;;;;;;;;1.00;1.00;;;;;14.30;70.84;100715.59;6237816;22;50441;-72
2022/11/04 12:33:38;;;;;;;;;1.50;1.50;;;;;14.15;70.46;100680.28;6238742;22;49669;-72
2022/11/04 12:36:43;;;;;;;;;2.25;2.25;;;;;14.45;69.39;100735.91;6235775;22;49890;-73
2022/11/04 12:39:33;;;;;;;;;2.00;1.50;;;;;13.61;70.04;100644.81;6234218;22;49714;-76
2022/11/04 12:42:07;;;;;;;;;2.00;1.00;;;;;14.52;70.67;100742.13;6234481;22;49769;-73
2022/11/04 12:44:44;;;;;;;;;2.00;2.00;;;;;14.62;70.41;100729.84;6234946;22;49713;-77
2022/11/04 12:47:33;;;;;;;;;2.50;2.50;;;;;13.67;69.51;100570.97;6235801;22;49744;-72
2022/11/04 12:50:15;;;;;;;;;3.75;3.00;;;;;14.71;69.65;100749.25;6232707;22;49794;-73
2022/11/04 12:53:22;;;;;;;;;3.00;2.00;;;;;14.85;70.03;100760.72;6235711;22;49817;-73
2022/11/04 12:56:01;;;;;;;;;3.75;2.00;;;;;13.65;69.45;100568.34;6171155;23;49950;-73
2022/11/04 12:59:04;;;;;;;;;1.00;1.00;;;;;14.95;68.63;100761.66;6222676;22;49527;-75
2022/11/04 13:01:43;;;;;;;;;1.00;1.00;;;;;14.67;68.44;100723.72;6236471;22;49904;-73
2022/11/04 13:04:13;;;;;;;;;2.00;1.00;;;;;15.08;68.59;100781.97;6235508;22;50539;-72
2022/11/04 13:06:45;;;;;;;;;1.00;1.00;;;;;14.19;68.33;100635.44;6236851;22;49739;-72
2022/11/04 13:09:17;;;;;;;;;1.75;1.75;;;;;14.08;69.63;100655.63;6236598;22;49803;-73
2022/11/04 13:11:50;;;;;;;;;3.00;2.00;;;;;14.88;76.86;100810.97;6236694;22;49585;-71
2022/11/04 13:14:28;;;;;;;;;1.00;1.00;;;;;14.53;84.25;100821.38;6235603;22;50787;-73
2022/11/04 13:16:59;;;;;;;;;1.00;1.00;;;;;13.85;84.50;100729.38;6236049;22;49605;-73
2022/11/04 13:19:36;;;;;;;;;1.75;1.00;;;;;13.03;85.39;100617.97;6235148;22;49980;-74
2022/11/04 13:22:10;;;;;;;;;1.50;1.50;;;;;13.48;86.78;100679.88;6233832;22;49496;-74
2022/11/04 13:24:47;;;;;;;;;2.00;2.00;;;;;12.79;85.37;100589.66;6235732;22;50974;-73
2022/11/04 13:27:20;;;;;;;;;2.25;2.00;;;;;14.38;85.91;100852.03;6236318;22;49499;-68
2022/11/04 13:29:47;;;;;;;;;1.25;1.25;;;;;14.23;84.92;100842.28;6235811;22;49507;-70
2022/11/04 13:32:25;;;;;;;;;2.25;2.25;;;;;14.22;83.96;100846.69;6236146;22;49706;-69
2022/11/04 13:35:03;;;;;;;;;2.25;1.50;;;;;13.99;84.27;100819.19;6235200;22;50337;-70
2022/11/04 13:37:36;;;;;;;;;2.75;1.75;;;;;14.01;87.35;100844.75;6238837;22;49844;-76
2022/11/04 13:40:15;;;;;;;;;1.75;1.75;;;;;14.20;88.03;100856.34;6238035;22;49635;-72
2022/11/04 13:45:54;;;;;;;;;2.00;2.00;;;;;14.41;84.23;100871.47;6236908;22;50110;-78
2022/11/04 13:48:24;;;;;;;;;1.00;1.00;;;;;14.30;84.50;100847.63;6234718;22;49541;-82
2022/11/04 13:51:01;;;;;;;;;1.75;1.75;;;;;14.21;82.31;100833.47;6236065;22;50023;-78
2022/11/04 13:53:50;;;;;;;;;0.75;0.75;;;;;14.26;81.02;100856.38;6236870;22;49543;-76
2022/11/04 13:56:36;;;;;;;;;3.00;1.00;;;;;14.37;81.62;100896.06;6237191;22;49787;-78
2022/11/04 13:59:23;;;;;;;;;0.50;0.50;;;;;14.32;81.95;100916.28;6237133;22;49987;-80
2022/11/04 14:02:17;;;;;;;;;1.00;1.00;;;;;14.31;81.32;100912.75;6237195;22;49778;-79
2022/11/04 14:04:44;;;;;;;;;2.00;1.00;;;;;13.96;81.31;100862.28;6237358;22;50028;-80
2022/11/04 14:08:07;;;;;;;;;0.00;0.00;;;;;13.81;80.65;100840.19;6209644;22;51523;-78
2022/11/04 14:10:48;;;;;;;;;3.25;3.25;;;;;14.21;79.71;100928.53;6113831;23;49754;-79
2022/11/04 14:13:25;;;;;;;;;4.00;3.00;;;;;14.15;79.54;100941.66;6229187;22;49766;-76
2022/11/04 14:16:10;;;;;;;;;2.75;2.75;;;;;14.12;79.57;100942.53;6241674;22;49483;-78
2022/11/04 14:18:41;;;;;;;;;2.25;2.25;;;;;12.36;79.00;100638.38;6242011;22;50591;-81
2022/11/04 14:21:14;;;;;;;;;3.00;3.00;;;;;12.69;79.59;100719.50;6218570;22;49590;-77
2022/11/04 14:23:42;;;;;;;;;5.00;4.00;;;;;14.03;79.83;100960.91;6206890;22;49625;-75
2022/11/04 14:26:13;;;;;;;;;3.50;3.50;;;;;13.89;78.45;100978.34;6237159;22;49714;-75
2022/11/04 14:28:43;;;;;;;;;4.25;4.25;;;;;13.25;79.50;100891.47;6235789;22;50380;-83
2022/11/04 14:31:12;;;;;;;;;3.00;3.00;;;;;13.83;79.84;100999.41;6209657;22;49630;-81
2022/11/04 14:33:53;;;;;;;;;3.25;3.25;;;;;12.31;79.40;100743.59;6210035;22;49738;-79
2022/11/04 14:36:29;;;;;;;;;1.50;1.50;;;;;13.78;78.50;100985.25;6238339;22;49681;-79
2022/11/04 14:38:54;;;;;;;;;3.75;3.75;;;;;13.78;79.41;100995.81;6236670;22;51644;-74
2022/11/04 14:41:38;;;;;;;;;3.00;3.00;;;;;13.77;79.27;101008.13;6236445;22;49742;-77
2022/11/04 14:44:16;;;;;;;;;2.75;2.75;;;;;12.64;78.64;100800.19;6236336;22;49692;-75
2022/11/04 14:46:45;;;;;;;;;5.00;4.00;;;;;12.70;78.36;100840.66;6236555;22;49788;-76
2022/11/04 14:49:50;;;;;;;;;4.00;4.00;;;;;12.77;77.62;100867.97;6235426;22;50771;-76
2022/11/04 14:52:21;;;;;;;;;4.25;4.25;;;;;12.73;78.62;100837.19;6111509;22;49790;-76
2022/11/04 14:54:48;;;;;;;;;3.50;3.25;;;;;13.78;78.10;101035.38;6237872;22;50200;-73
2022/11/04 14:57:19;;;;;;;;;3.00;3.00;;;;;13.64;77.51;101038.75;6236769;22;49845;-74
2022/11/04 14:59:45;;;;;;;;;1.00;1.00;;;;;13.40;77.98;101005.03;6214417;22;50831;-78
2022/11/04 15:02:20;;;;;;;;;3.75;2.50;;;;;12.79;78.54;100905.75;6212130;22;49847;-77
2022/11/04 15:05:03;;;;;;;;;3.00;2.25;;;;;12.85;77.04;100935.72;6234940;22;49732;-76
2022/11/04 15:07:37;;;;;;;;;2.00;1.50;;;;;13.55;76.51;101041.28;6234232;22;49808;-75
2022/11/04 15:10:32;;;;;;;;;2.00;2.00;;;;;13.51;75.24;101035.91;6208064;22;52626;-80
2022/11/04 15:13:00;;;;;;;;;0.25;0.25;;;;;13.36;75.55;101010.25;6236445;22;49623;-78
2022/11/04 15:15:40;;;;;;;;;3.00;2.00;;;;;12.77;75.23;100925.94;6237561;22;49562;-81
2022/11/04 15:18:29;;;;;;;;;2.00;2.00;;;;;13.23;74.10;101003.06;6234794;22;49849;-79
2022/11/04 15:21:01;;;;;;;;;0.25;0.25;;;;;12.80;73.05;100966.38;6215471;22;50819;-84
2022/11/04 15:23:42;;;;;;;;;0.00;0.00;;;;;12.29;70.98;100912.03;6204884;22;50539;-82
2022/11/04 15:26:27;;;;;;;;;0.00;0.00;;;;;12.84;71.09;101026.16;6234883;22;49583;-75
2022/11/04 15:28:54;;;;;;;;;2.00;2.00;;;;;11.70;71.52;100843.47;6243191;22;49778;-75
2022/11/04 15:31:31;;;;;;;;;3.00;1.50;;;;;13.23;72.07;101098.84;6235088;22;50731;-74
2022/11/04 15:33:59;;;;;;;;;1.00;0.00;;;;;12.38;71.99;100950.78;6237315;22;50032;-76
2022/11/04 15:36:40;;;;;;;;;2.00;2.00;;;;;12.73;71.11;101008.41;6242139;22;49738;-87
2022/11/04 15:39:13;;;;;;;;;0.50;0.50;;;;;13.16;71.76;101097.81;6215906;22;49779;-78
2022/11/04 15:44:31;;;;;;;;;2.00;0.00;;;;;12.88;71.51;101030.63;6246782;22;49704;-86
2022/11/04 15:47:19;;;;;;;;;0.75;0.00;;;;;12.99;71.94;101059.75;6215988;22;49581;-81
2022/11/04 15:49:47;;;;;;;;;0.00;0.00;;;;;12.87;71.86;101046.41;6244654;22;49948;-86
2022/11/04 15:52:20;;;;;;;;;0.75;0.75;;;;;12.61;72.12;101036.31;6216231;22;52461;-79
2022/11/04 15:54:48;;;;;;;;;0.75;0.75;;;;;12.81;72.66;101085.81;6243422;22;49561;-83
2022/11/04 15:57:36;;;;;;;;;1.50;1.50;;;;;11.97;72.83;100936.94;6214445;22;49753;-79
2022/11/04 16:00:23;;;;;;;;;1.00;1.00;;;;;12.80;73.05;101106.00;6240230;22;49840;-84
2022/11/04 16:02:53;;;;;;;;;2.00;0.00;;;;;12.27;73.36;101040.13;6245076;22;50243;-84
2022/11/04 16:05:29;;;;;;;;;1.00;1.00;;;;;12.08;74.13;101011.69;6238635;22;49862;-83
2022/11/04 16:08:12;;;;;;;;;2.00;1.00;;;;;11.44;73.95;100913.09;6237614;22;49780;-86
2022/11/04 16:10:38;;;;;;;;;2.25;1.50;;;;;12.67;75.06;101146.16;6237005;22;49758;-85
2022/11/04 16:13:13;;;;;;;;;2.00;1.75;;;;;12.63;75.55;101125.88;6213760;22;51368;-79
2022/11/04 16:15:44;;;;;;;;;0.00;0.00;;;;;12.34;75.70;101075.31;6245769;22;49424;-82
2022/11/04 16:18:33;;;;;;;;;1.75;1.75;;;;;12.65;75.75;101149.66;6239476;22;49497;-85
2022/11/04 16:21:06;;;;;;;;;1.00;0.50;;;;;11.95;76.16;101057.91;6214525;22;49653;-84
2022/11/04 16:23:42;;;;;;;;;3.25;3.25;;;;;12.11;76.63;101095.06;6214797;22;52463;-83
2022/11/04 16:26:08;;;;;;;;;1.00;1.00;;;;;11.91;76.91;101066.59;6237069;22;49650;-84
2022/11/04 16:28:36;;;;;;;;;2.75;2.00;;;;;10.92;77.42;100908.53;6209732;22;49695;-84
2022/11/04 16:31:05;;;;;;;;;2.00;2.00;;;;;12.47;77.28;101197.56;6239177;22;49788;-86
2022/11/04 16:33:31;;;;;;;;;1.00;1.00;;;;;11.25;77.02;101003.81;6241886;22;49838;-81
2022/11/04 16:35:56;;;;;;;;;3.00;1.50;;;;;12.42;77.73;101225.53;6236252;22;49854;-82
2022/11/04 16:38:22;;;;;;;;;1.75;1.75;;;;;12.41;78.22;101218.50;6214509;22;49566;-77
2022/11/04 16:40:48;;;;;;;;;2.25;1.75;;;;;11.17;78.32;101008.00;6238107;22;49826;-81
2022/11/04 16:43:18;;;;;;;;;2.00;2.00;;;;;12.42;78.37;101223.81;6237161;22;50786;-77
2022/11/04 16:45:46;;;;;;;;;3.00;3.00;;;;;11.70;78.76;101089.81;6237914;22;49698;-77
2022/11/04 16:48:15;;;;;;;;;3.00;3.00;;;;;12.46;78.78;101212.50;6234998;22;49665;-77
2022/11/04 16:50:40;;;;;;;;;3.00;2.50;;;;;12.16;78.73;101164.44;6235823;22;49655;-78
2022/11/04 16:56:08;;;;;;;;;2.75;2.75;;;;;12.44;79.09;101215.94;6112386;23;50071;-79
2022/11/04 16:58:33;;;;;;;;;3.00;2.25;;;;;11.16;78.84;101001.88;6230514;22;49804;-79
2022/11/04 17:00:59;;;;;;;;;4.00;2.75;;;;;12.45;78.69;101279.19;6209454;22;50184;-82
2022/11/04 17:03:24;;;;;;;;;4.00;2.50;;;;;11.81;79.17;101166.34;6235772;22;49744;-81
2022/11/04 17:05:58;;;;;;;;;1.00;1.00;;;;;11.52;78.95;101116.59;6236412;22;49757;-81
2022/11/04 17:08:24;;;;;;;;;3.75;2.75;;;;;12.40;79.05;101275.53;6236243;22;49606;-79
2022/11/04 17:10:50;;;;;;;;;2.50;2.50;;;;;12.36;79.29;101278.09;6236191;22;49849;-79
2022/11/04 17:13:15;;;;;;;;;3.75;2.75;;;;;11.64;79.51;101179.97;6208272;22;52463;-79
2022/11/04 17:15:40;;;;;;;;;3.00;3.00;;;;;11.21;79.41;101099.22;6235768;22;49606;-79
2022/11/04 17:18:06;;;;;;;;;3.75;3.75;;;;;12.17;79.55;101268.91;6208333;22;50123;-77
2022/11/04 17:20:32;;;;;;;;;2.75;2.00;;;;;11.96;79.46;101274.53;6236200;22;49896;-79
2022/11/04 17:22:58;;;;;;;;;3.50;3.00;;;;;11.75;79.86;101223.16;6236635;22;49831;-83
2022/11/04 17:25:34;;;;;;;;;3.00;3.00;;;;;10.12;79.30;100937.19;6208113;22;49725;-86
2022/11/04 17:28:00;;;;;;;;;3.00;2.25;;;;;10.90;79.66;101097.56;6209857;22;49591;-72
2022/11/04 17:30:25;;;;;;;;;4.75;4.75;;;;;10.46;79.63;101028.22;6234215;22;50049;-73
2022/11/04 17:32:51;;;;;;;;;5.50;4.25;;;;;12.14;79.89;101321.44;6233697;22;50611;-74
2022/11/04 17:35:17;;;;;;;;;7.50;4.25;;;;;11.81;79.77;101287.34;6234021;22;49795;-73
2022/11/04 17:37:43;;;;;;;;;6.25;4.00;;;;;11.26;79.13;101210.59;6233933;22;49718;-74
2022/11/04 17:40:15;;;;;;;;;6.00;5.00;;;;;12.07;79.21;101328.34;6235107;22;49562;-73
2022/11/04 17:45:26;;;;;;;;;5.50;4.50;;;;;11.94;77.93;101345.53;6234494;22;49646;-76
2022/11/04 17:47:51;;;;;;;;;5.00;3.75;;;;;10.97;77.99;101188.81;6236074;22;49725;-74
2022/11/04 17:50:17;;;;;;;;;8.75;4.25;;;;;11.91;77.97;101378.81;6217757;22;49995;-73
2022/11/04 17:52:43;;;;;;;;;7.00;5.25;;;;;11.82;76.98;101347.00;6235283;22;49826;-73
2022/11/04 17:55:09;;;;;;;;;5.50;5.50;;;;;11.55;77.59;101307.69;6234763;22;49784;-76
2022/11/04 17:57:35;;;;;;;;;5.25;5.25;;;;;11.79;77.61;101371.47;6235970;22;49717;-75
2022/11/04 18:00:04;;;;;;;;;5.00;5.00;;;;;11.86;78.03;101383.94;6236115;22;49542;-72
2022/11/04 18:02:29;;;;;;;;;9.75;8.25;;;;;11.80;77.88;101369.75;6234945;22;49685;-75
2022/11/04 18:04:55;;;;;;;;;8.50;5.50;;;;;10.07;77.37;101086.63;6235525;22;49640;-75
2022/11/04 18:07:20;;;;;;;;;6.25;6.25;;;;;11.58;77.94;101360.34;6236072;22;49727;-81
2022/11/04 18:09:45;;;;;;;;;9.25;8.75;;;;;11.45;78.49;101352.16;6235322;22;49765;-71
2022/11/04 18:14:55;;;;;;;;;10.00;7.00;;;;;11.57;79.95;101383.13;6234855;22;50013;-72
2022/11/04 18:17:23;;;;;;;;;9.50;6.75;;;;;11.64;81.05;101400.88;6235152;22;50064;-75
2022/11/04 18:19:50;;;;;;;;;7.00;6.25;;;;;11.42;81.18;101412.56;6235637;22;49763;-74
2022/11/04 18:22:15;;;;;;;;;13.00;10.50;;;;;11.46;82.06;101403.88;6234550;22;50496;-74
2022/11/04 18:24:41;;;;;;;;;9.50;8.75;;;;;11.07;82.26;101348.47;6235984;22;49645;-84
2022/11/04 18:27:06;;;;;;;;;6.00;5.00;;;;;11.63;82.28;101454.31;6238839;22;50086;-82
2022/11/04 18:29:31;;;;;;;;;4.00;4.00;;;;;10.87;82.24;101312.88;6234564;22;49950;-74
2022/11/04 18:31:57;;;;;;;;;10.25;8.50;;;;;9.92;82.41;101164.84;6235760;22;50912;-73
2022/11/04 18:34:22;;;;;;;;;7.75;7.75;;;;;10.91;82.47;101334.88;6234035;22;49943;-73
2022/11/04 18:36:48;;;;;;;;;10.50;8.50;;;;;11.46;81.96;101440.69;6233114;22;50256;-73
2022/11/04 18:39:16;;;;;;;;;7.75;7.75;;;;;11.45;82.29;101431.03;6234117;22;49892;-74
2022/11/04 18:41:41;;;;;;;;;9.25;8.25;;;;;10.00;82.19;101210.56;6235800;22;50718;-73
2022/11/04 18:44:12;;;;;;;;;8.75;7.50;;;;;11.37;81.64;101456.19;6235118;22;49745;-74
2022/11/04 18:46:38;;;;;;;;;5.25;4.00;;;;;11.32;82.42;101463.09;6235941;22;49749;-74
2022/11/04 18:49:03;;;;;;;;;4.25;4.25;;;;;11.17;82.39;101437.22;6235182;22;49479;-74
2022/11/04 18:51:28;;;;;;;;;10.00;6.00;;;;;11.30;81.95;101459.53;6234675;22;49921;-74
2022/11/04 18:53:54;;;;;;;;;7.50;7.50;;;;;11.21;82.32;101448.75;6235248;22;49826;-74
2022/11/04 18:56:21;;;;;;;;;9.25;8.25;;;;;11.02;81.97;101433.28;6235135;22;49623;-74
2022/11/04 18:58:47;;;;;;;;;7.75;6.00;;;;;11.17;82.25;101476.66;6234869;22;49616;-73
2022/11/04 19:01:25;;;;;;;;;8.25;6.50;;;;;11.16;82.18;101500.25;6234527;22;50629;-74
2022/11/04 19:03:51;;;;;;;;;6.25;6.25;;;;;11.10;82.24;101464.22;6236181;22;49667;-74
2022/11/04 19:06:20;;;;;;;;;8.00;7.50;;;;;10.78;82.22;101430.78;6236209;22;49627;-74
2022/11/04 19:08:49;;;;;;;;;8.75;6.50;;;;;11.13;82.25;101484.41;6237159;22;49795;-74
2022/11/04 19:11:19;;;;;;;;;7.25;7.25;;;;;11.09;82.09;101499.19;6236553;22;50443;-74
2022/11/04 19:13:49;;;;;;;;;7.50;7.50;;;;;10.79;82.30;101438.72;6236339;22;49706;-73
2022/11/04 19:16:14;;;;;;;;;8.75;7.75;;;;;11.06;82.45;101490.31;6208863;22;49654;-73
2022/11/04 19:18:40;;;;;;;;;11.00;10.75;;;;;10.58;82.25;101406.56;6236549;22;49698;-73
2022/11/04 19:21:08;;;;;;;;;11.25;10.50;;;;;11.04;81.96;101485.03;6236306;22;49715;-73
2022/11/04 19:23:33;;;;;;;;;7.00;7.00;;;;;11.00;81.90;101488.41;6236757;22;49844;-74
2022/11/04 19:26:04;;;;;;;;;9.75;8.00;;;;;10.63;81.86;101444.38;6236766;22;49834;-74
2022/11/04 19:28:29;;;;;;;;;7.75;7.75;;;;;10.56;82.13;101440.66;6209233;22;49776;-74
2022/11/04 19:31:01;;;;;;;;;12.75;10.50;;;;;10.92;82.36;101486.41;6208292;22;50706;-74
2022/11/04 19:33:28;;;;;;;;;14.00;11.00;;;;;10.95;82.50;101502.25;6235639;22;49579;-75
2022/11/04 19:35:54;;;;;;;;;11.25;9.00;;;;;9.35;82.49;101246.94;6236690;22;49775;-74
2022/11/04 19:38:21;;;;;;;;;10.00;10.00;;;;;10.58;82.63;101474.81;6236518;22;49973;-74
2022/11/04 19:40:47;;;;;;;;;11.50;8.00;;;;;10.54;82.50;101473.84;6235873;22;50686;-74
2022/11/04 19:43:13;;;;;;;;;11.50;9.50;;;;;10.13;82.99;101406.81;6236148;22;49655;-74
2022/11/04 19:45:44;;;;;;;;;9.75;8.75;;;;;9.51;82.63;101334.84;6236413;22;49737;-73
2022/11/04 19:48:11;;;;;;;;;9.50;9.50;;;;;10.85;82.57;101533.47;6235514;22;49796;-73
2022/11/04 19:50:39;;;;;;;;;11.75;11.00;;;;;10.55;82.92;101480.88;6235526;22;49844;-74